sensor_id;sensor_type;location;lat;lon;timestamp;pressure;altitude;pressure_sealevel;temperature;humidity
53546;BME280;39432;51.902;10.844;2023-02-21T00:01:20;99485.38;;;9.69;100.00
53546;BME280;39432;51.902;10.844;2023-02-21T00:04:02;99501.84;;;9.74;100.00
53546;BME280;39432;51.902;10.844;2023-02-21T00:16:41;99505.59;;;9.68;100.00
53546;BME280;39432;51.902;10.844;2023-02-21T00:19:23;99507.09;;;9.59;100.00
53546;BME280;39432;51.902;10.844;2023-02-21T00:22:05;99501.38;;;9.61;100.00
53546;BME280;39432;51.902;10.844;2023-02-21T00:24:48;99508.25;;;9.63;100.00
53546;BME280;39432;51.902;10.844;2023-02-21T00:27:30;99494.47;;;9.53;100.00
53546;BME280;39432;51.902;10.844;2023-02-21T00:30:13;99504.31;;;9.54;100.00
53546;BME280;39432;51.902;10.844;2023-02-21T00:32:59;99504.56;;;9.53;100.00
53546;BME280;39432;51.902;10.844;2023-02-21T00:35:41;99505.31;;;9.48;100.00
53546;BME280;39432;51.902;10.844;2023-02-21T00:38:23;99505.94;;;9.55;100.00
53546;BME280;39432;51.902;10.844;2023-02-21T00:41:06;99494.47;;;9.53;100.00
53546;BME280;39432;51.902;10.844;2023-02-21T00:43:48;99503.81;;;9.57;100.00
53546;BME280;39432;51.902;10.844;2023-02-21T00:46:30;99499.94;;;9.53;100.00
53546;BME280;39432;51.902;10.844;2023-02-21T00:49:15;99501.50;;;9.49;100.00
53546;BME280;39432;51.902;10.844;2023-02-21T00:51:57;99511.59;;;9.48;100.00
53546;BME280;39432;51.902;10.844;2023-02-21T00:54:39;99513.03;;;9.51;100.00
53546;BME280;39432;51.902;10.844;2023-02-21T00:57:22;99511.19;;;9.57;100.00
53546;BME280;39432;51.902;10.844;2023-02-21T01:00:16;99511.94;;;9.52;100.00
53546;BME280;39432;51.902;10.844;2023-02-21T01:02:59;99512.50;;;9.54;100.00
53546;BME280;39432;51.902;10.844;2023-02-21T01:05:43;99505.44;;;9.58;100.00
53546;BME280;39432;51.902;10.844;2023-02-21T01:08:28;99518.03;;;9.59;100.00
53546;BME280;39432;51.902;10.844;2023-02-21T01:11:13;99507.63;;;9.56;100.00
53546;BME280;39432;51.902;10.844;2023-02-21T01:13:55;99510.72;;;9.65;100.00
53546;BME280;39432;51.902;10.844;2023-02-21T01:16:37;99496.31;;;9.69;100.00
53546;BME280;39432;51.902;10.844;2023-02-21T01:19:25;99500.94;;;9.69;100.00
53546;BME280;39432;51.902;10.844;2023-02-21T01:22:10;99495.16;;;9.65;100.00
53546;BME280;39432;51.902;10.844;2023-02-21T01:24:53;99491.88;;;9.63;100.00
53546;BME280;39432;51.902;10.844;2023-02-21T01:27:35;99485.81;;;9.61;100.00
53546;BME280;39432;51.902;10.844;2023-02-21T01:30:18;99491.88;;;9.63;100.00
53546;BME280;39432;51.902;10.844;2023-02-21T01:33:00;99494.13;;;9.71;100.00
53546;BME280;39432;51.902;10.844;2023-02-21T01:35:42;99481.06;;;9.73;100.00
53546;BME280;39432;51.902;10.844;2023-02-21T01:38:27;99486.31;;;9.80;100.00
53546;BME280;39432;51.902;10.844;2023-02-21T01:41:09;99494.72;;;9.73;100.00
53546;BME280;39432;51.902;10.844;2023-02-21T01:43:59;99490.84;;;9.69;100.00
53546;BME280;39432;51.902;10.844;2023-02-21T01:46:41;99495.97;;;9.66;100.00
53546;BME280;39432;51.902;10.844;2023-02-21T01:49:23;99497.13;;;9.70;100.00
53546;BME280;39432;51.902;10.844;2023-02-21T01:52:05;99495.81;;;9.72;100.00
53546;BME280;39432;51.902;10.844;2023-02-21T01:54:52;99499.59;;;9.71;100.00
53546;BME280;39432;51.902;10.844;2023-02-21T01:57:37;99500.13;;;9.68;100.00
53546;BME280;39432;51.902;10.844;2023-02-21T02:00:20;99493.00;;;9.67;100.00
53546;BME280;39432;51.902;10.844;2023-02-21T02:03:04;99497.31;;;9.63;100.00
53546;BME280;39432;51.902;10.844;2023-02-21T02:05:48;99498.66;;;9.61;100.00
53546;BME280;39432;51.902;10.844;2023-02-21T02:08:32;99497.25;;;9.58;100.00
53546;BME280;39432;51.902;10.844;2023-02-21T02:11:31;99505.78;;;9.62;100.00
53546;BME280;39432;51.902;10.844;2023-02-21T02:14:27;99505.53;;;9.63;100.00
53546;BME280;39432;51.902;10.844;2023-02-21T02:17:05;99503.81;;;9.57;100.00
53546;BME280;39432;51.902;10.844;2023-02-21T02:25:45;99501.69;;;9.64;100.00
53546;BME280;39432;51.902;10.844;2023-02-21T02:28:37;99495.16;;;9.65;100.00
53546;BME280;39432;51.902;10.844;2023-02-21T02:31:27;99489.19;;;9.68;100.00
53546;BME280;39432;51.902;10.844;2023-02-21T02:34:28;99488.03;;;9.64;100.00
53546;BME280;39432;51.902;10.844;2023-02-21T02:37:07;99488.03;;;9.64;100.00
53546;BME280;39432;51.902;10.844;2023-02-21T02:39:42;99481.00;;;9.68;100.00
53546;BME280;39432;51.902;10.844;2023-02-21T02:42:18;99482.09;;;9.67;100.00
53546;BME280;39432;51.902;10.844;2023-02-21T02:44:56;99481.56;;;9.70;100.00
53546;BME280;39432;51.902;10.844;2023-02-21T02:47:30;99484.88;;;9.72;100.00
53546;BME280;39432;51.902;10.844;2023-02-21T02:50:05;99481.06;;;9.73;100.00
53546;BME280;39432;51.902;10.844;2023-02-21T02:52:48;99485.88;;;9.66;100.00
53546;BME280;39432;51.902;10.844;2023-02-21T02:55:29;99485.06;;;9.66;100.00
53546;BME280;39432;51.902;10.844;2023-02-21T02:58:00;99472.16;;;9.61;100.00
53546;BME280;39432;51.902;10.844;2023-02-21T03:00:33;99479.97;;;9.53;100.00
53546;BME280;39432;51.902;10.844;2023-02-21T03:03:19;99476.38;;;9.47;100.00
53546;BME280;39432;51.902;10.844;2023-02-21T03:06:08;99470.38;;;9.50;100.00
53546;BME280;39432;51.902;10.844;2023-02-21T03:08:45;99473.19;;;9.55;100.00
53546;BME280;39432;51.902;10.844;2023-02-21T03:11:22;99462.25;;;9.55;100.00
53546;BME280;39432;51.902;10.844;2023-02-21T03:13:55;99458.47;;;9.56;100.00
53546;BME280;39432;51.902;10.844;2023-02-21T03:16:28;99461.13;;;9.51;100.00
53546;BME280;39432;51.902;10.844;2023-02-21T03:19:03;99447.53;;;9.56;100.00
53546;BME280;39432;51.902;10.844;2023-02-21T03:21:41;99449.75;;;9.59;100.00
53546;BME280;39432;51.902;10.844;2023-02-21T03:24:13;99447.13;;;9.69;100.00
53546;BME280;39432;51.902;10.844;2023-02-21T03:26:45;99441.94;;;9.68;100.00
53546;BME280;39432;51.902;10.844;2023-02-21T03:29:36;99438.63;;;9.66;100.00
53546;BME280;39432;51.902;10.844;2023-02-21T03:32:08;99429.97;;;9.74;100.00
53546;BME280;39432;51.902;10.844;2023-02-21T03:34:37;99439.50;;;9.71;100.00
53546;BME280;39432;51.902;10.844;2023-02-21T03:37:20;99431.34;;;9.76;100.00
53546;BME280;39432;51.902;10.844;2023-02-21T03:39:57;99435.50;;;9.79;100.00
53546;BME280;39432;51.902;10.844;2023-02-21T03:42:29;99429.78;;;9.81;100.00
53546;BME280;39432;51.902;10.844;2023-02-21T03:44:59;99431.16;;;9.83;100.00
53546;BME280;39432;51.902;10.844;2023-02-21T03:47:29;99414.16;;;9.76;100.00
53546;BME280;39432;51.902;10.844;2023-02-21T03:49:59;99432.97;;;9.72;100.00
53546;BME280;39432;51.902;10.844;2023-02-21T03:52:34;99418.78;;;9.75;100.00
53546;BME280;39432;51.902;10.844;2023-02-21T03:55:04;99416.00;;;9.70;100.00
53546;BME280;39432;51.902;10.844;2023-02-21T03:57:34;99417.47;;;9.78;100.00
53546;BME280;39432;51.902;10.844;2023-02-21T04:00:05;99426.94;;;9.70;100.00
53546;BME280;39432;51.902;10.844;2023-02-21T04:02:40;99412.44;;;9.70;100.00
53546;BME280;39432;51.902;10.844;2023-02-21T04:05:21;99421.47;;;9.70;100.00
53546;BME280;39432;51.902;10.844;2023-02-21T04:11:11;99412.50;;;9.75;100.00
53546;BME280;39432;51.902;10.844;2023-02-21T04:13:41;99401.53;;;9.70;100.00
53546;BME280;39432;51.902;10.844;2023-02-21T04:16:11;99406.22;;;9.74;100.00
53546;BME280;39432;51.902;10.844;2023-02-21T04:18:41;99403.22;;;9.76;100.00
53546;BME280;39432;51.902;10.844;2023-02-21T04:21:15;99393.31;;;9.70;100.00
53546;BME280;39432;51.902;10.844;2023-02-21T04:23:46;99397.13;;;9.69;100.00
53546;BME280;39432;51.902;10.844;2023-02-21T04:26:18;99392.44;;;9.64;100.00
53546;BME280;39432;51.902;10.844;2023-02-21T04:28:50;99391.69;;;9.69;100.00
53546;BME280;39432;51.902;10.844;2023-02-21T04:31:20;99389.72;;;9.64;100.00
53546;BME280;39432;51.902;10.844;2023-02-21T04:33:51;99397.91;;;9.64;100.00
53546;BME280;39432;51.902;10.844;2023-02-21T04:36:37;99386.94;;;9.59;100.00
53546;BME280;39432;51.902;10.844;2023-02-21T04:39:07;99394.56;;;9.57;100.00
53546;BME280;39432;51.902;10.844;2023-02-21T04:41:40;99396.66;;;9.50;100.00
53546;BME280;39432;51.902;10.844;2023-02-21T04:44:10;99395.59;;;9.51;100.00
53546;BME280;39432;51.902;10.844;2023-02-21T04:46:40;99397.72;;;9.49;100.00
53546;BME280;39432;51.902;10.844;2023-02-21T04:49:11;99397.22;;;9.52;100.00
53546;BME280;39432;51.902;10.844;2023-02-21T04:51:41;99393.91;;;9.50;100.00
53546;BME280;39432;51.902;10.844;2023-02-21T04:54:10;99398.94;;;9.58;100.00
53546;BME280;39432;51.902;10.844;2023-02-21T04:56:43;99404.94;;;9.60;100.00
53546;BME280;39432;51.902;10.844;2023-02-21T04:59:12;99400.75;;;9.74;100.00
53546;BME280;39432;51.902;10.844;2023-02-21T05:01:42;99397.34;;;9.62;100.00
53546;BME280;39432;51.902;10.844;2023-02-21T05:04:12;99386.44;;;9.62;100.00
53546;BME280;39432;51.902;10.844;2023-02-21T05:06:41;99392.91;;;9.56;100.00
53546;BME280;39432;51.902;10.844;2023-02-21T05:09:11;99397.78;;;9.54;100.00
53546;BME280;39432;51.902;10.844;2023-02-21T05:11:43;99398.06;;;9.53;100.00
53546;BME280;39432;51.902;10.844;2023-02-21T05:14:13;99410.94;;;9.57;100.00
53546;BME280;39432;51.902;10.844;2023-02-21T05:16:44;99417.94;;;9.48;100.00
53546;BME280;39432;51.902;10.844;2023-02-21T05:19:17;99419.06;;;9.52;100.00
53546;BME280;39432;51.902;10.844;2023-02-21T05:21:54;99417.59;;;9.44;100.00
53546;BME280;39432;51.902;10.844;2023-02-21T05:24:24;99426.66;;;9.45;100.00
53546;BME280;39432;51.902;10.844;2023-02-21T05:26:57;99429.88;;;9.42;100.00
53546;BME280;39432;51.902;10.844;2023-02-21T05:29:27;99445.25;;;9.48;100.00
53546;BME280;39432;51.902;10.844;2023-02-21T05:31:57;99441.63;;;9.42;100.00
53546;BME280;39432;51.902;10.844;2023-02-21T05:34:27;99449.88;;;9.47;100.00
53546;BME280;39432;51.902;10.844;2023-02-21T05:36:56;99439.66;;;9.38;100.00
53546;BME280;39432;51.902;10.844;2023-02-21T05:39:26;99438.75;;;9.32;100.00
53546;BME280;39432;51.902;10.844;2023-02-21T05:41:58;99433.56;;;9.31;100.00
53546;BME280;39432;51.902;10.844;2023-02-21T05:44:28;99448.28;;;9.30;100.00
53546;BME280;39432;51.902;10.844;2023-02-21T05:46:57;99453.69;;;9.24;100.00
53546;BME280;39432;51.902;10.844;2023-02-21T05:49:28;99458.88;;;9.26;100.00
53546;BME280;39432;51.902;10.844;2023-02-21T05:51:57;99455.41;;;9.31;100.00
53546;BME280;39432;51.902;10.844;2023-02-21T05:54:27;99461.75;;;9.36;100.00
53546;BME280;39432;51.902;10.844;2023-02-21T05:56:59;99464.16;;;9.33;100.00
53546;BME280;39432;51.902;10.844;2023-02-21T05:59:29;99464.75;;;9.35;100.00
53546;BME280;39432;51.902;10.844;2023-02-21T06:01:59;99467.47;;;9.35;100.00
53546;BME280;39432;51.902;10.844;2023-02-21T06:04:28;99464.75;;;9.35;100.00
53546;BME280;39432;51.902;10.844;2023-02-21T06:06:58;99469.41;;;9.39;100.00
53546;BME280;39432;51.902;10.844;2023-02-21T06:09:28;99480.88;;;9.36;100.00
53546;BME280;39432;51.902;10.844;2023-02-21T06:12:00;99480.22;;;9.29;100.00
53546;BME280;39432;51.902;10.844;2023-02-21T06:14:30;99474.78;;;9.29;100.00
53546;BME280;39432;51.902;10.844;2023-02-21T06:17:00;99481.06;;;9.30;100.00
53546;BME280;39432;51.902;10.844;2023-02-21T06:19:29;99488.50;;;9.34;100.00
53546;BME280;39432;51.902;10.844;2023-02-21T06:21:59;99484.09;;;9.33;100.00
53546;BME280;39432;51.902;10.844;2023-02-21T06:24:29;99481.53;;;9.27;100.00
53546;BME280;39432;51.902;10.844;2023-02-21T06:27:01;99488.09;;;9.26;100.00
53546;BME280;39432;51.902;10.844;2023-02-21T06:29:30;99496.84;;;9.28;100.00
53546;BME280;39432;51.902;10.844;2023-02-21T06:32:00;99503.38;;;9.27;100.00
53546;BME280;39432;51.902;10.844;2023-02-21T06:34:30;99505.38;;;9.31;100.00
53546;BME280;39432;51.902;10.844;2023-02-21T06:37:00;99508.59;;;9.28;100.00
53546;BME280;39432;51.902;10.844;2023-02-21T06:39:30;99511.66;;;9.32;100.00
53546;BME280;39432;51.902;10.844;2023-02-21T06:42:02;99506.75;;;9.34;100.00
53546;BME280;39432;51.902;10.844;2023-02-21T06:44:32;99506.75;;;9.34;100.00
53546;BME280;39432;51.902;10.844;2023-02-21T06:47:01;99500.25;;;9.35;100.00
53546;BME280;39432;51.902;10.844;2023-02-21T06:49:31;99511.97;;;9.35;100.00
53546;BME280;39432;51.902;10.844;2023-02-21T06:52:00;99499.41;;;9.34;100.00
53546;BME280;39432;51.902;10.844;2023-02-21T06:54:30;99495.34;;;9.37;100.00
53546;BME280;39432;51.902;10.844;2023-02-21T06:57:03;99511.78;;;9.42;100.00
53546;BME280;39432;51.902;10.844;2023-02-21T06:59:32;99506.19;;;9.32;100.00
53546;BME280;39432;51.902;10.844;2023-02-21T07:02:02;99522.72;;;9.42;100.00
53546;BME280;39432;51.902;10.844;2023-02-21T07:04:32;99520.88;;;9.47;100.00
53546;BME280;39432;51.902;10.844;2023-02-21T07:07:02;99516.75;;;9.45;100.00
53546;BME280;39432;51.902;10.844;2023-02-21T07:09:31;99522.78;;;9.47;100.00
53546;BME280;39432;51.902;10.844;2023-02-21T07:12:04;99528.00;;;9.48;100.00
53546;BME280;39432;51.902;10.844;2023-02-21T07:14:34;99524.97;;;9.45;100.00
53546;BME280;39432;51.902;10.844;2023-02-21T07:17:04;99524.50;;;9.53;100.00
53546;BME280;39432;51.902;10.844;2023-02-21T07:19:33;99535.75;;;9.57;100.00
53546;BME280;39432;51.902;10.844;2023-02-21T07:22:03;99538.16;;;9.53;100.00
53546;BME280;39432;51.902;10.844;2023-02-21T07:24:33;99540.41;;;9.56;100.00
53546;BME280;39432;51.902;10.844;2023-02-21T07:27:05;99542.88;;;9.58;100.00
53546;BME280;39432;51.902;10.844;2023-02-21T07:29:34;99541.47;;;9.55;100.00
53546;BME280;39432;51.902;10.844;2023-02-21T07:32:04;99547.88;;;9.66;100.00
53546;BME280;39432;51.902;10.844;2023-02-21T07:34:34;99545.34;;;9.59;100.00
53546;BME280;39432;51.902;10.844;2023-02-21T07:37:03;99554.69;;;9.63;100.00
53546;BME280;39432;51.902;10.844;2023-02-21T07:39:33;99560.84;;;9.75;100.00
53546;BME280;39432;51.902;10.844;2023-02-21T07:42:06;99559.22;;;9.74;100.00
53546;BME280;39432;51.902;10.844;2023-02-21T07:44:44;99542.19;;;9.67;100.00
53546;BME280;39432;51.902;10.844;2023-02-21T07:47:13;99545.00;;;9.72;100.00
53546;BME280;39432;51.902;10.844;2023-02-21T07:49:43;99547.66;;;9.67;100.00
53546;BME280;39432;51.902;10.844;2023-02-21T07:52:13;99555.84;;;9.67;100.00
53546;BME280;39432;51.902;10.844;2023-02-21T07:54:43;99546.44;;;9.80;100.00
53546;BME280;39432;51.902;10.844;2023-02-21T07:57:15;99557.78;;;9.72;100.00
53546;BME280;39432;51.902;10.844;2023-02-21T07:59:46;99558.19;;;9.81;100.00
53546;BME280;39432;51.902;10.844;2023-02-21T08:02:16;99558.69;;;9.77;100.00
53546;BME280;39432;51.902;10.844;2023-02-21T08:04:48;99571.66;;;9.87;100.00
53546;BME280;39432;51.902;10.844;2023-02-21T08:07:18;99561.38;;;9.94;100.00
53546;BME280;39432;51.902;10.844;2023-02-21T08:09:48;99571.41;;;9.89;100.00
53546;BME280;39432;51.902;10.844;2023-02-21T08:12:20;99559.47;;;9.95;100.00
53546;BME280;39432;51.902;10.844;2023-02-21T08:14:50;99557.78;;;9.94;100.00
53546;BME280;39432;51.902;10.844;2023-02-21T08:17:19;99563.84;;;9.96;100.00
53546;BME280;39432;51.902;10.844;2023-02-21T08:19:49;99572.34;;;9.99;100.00
53546;BME280;39432;51.902;10.844;2023-02-21T08:22:18;99572.13;;;10.01;100.00
53546;BME280;39432;51.902;10.844;2023-02-21T08:24:48;99564.47;;;10.03;100.00
53546;BME280;39432;51.902;10.844;2023-02-21T08:27:21;99570.00;;;10.08;100.00
53546;BME280;39432;51.902;10.844;2023-02-21T08:29:51;99568.28;;;10.02;100.00
53546;BME280;39432;51.902;10.844;2023-02-21T08:32:20;99567.28;;;10.08;100.00
53546;BME280;39432;51.902;10.844;2023-02-21T08:34:50;99562.50;;;10.20;100.00
53546;BME280;39432;51.902;10.844;2023-02-21T08:37:19;99562.38;;;10.10;100.00
53546;BME280;39432;51.902;10.844;2023-02-21T08:39:50;99566.19;;;10.09;100.00
53546;BME280;39432;51.902;10.844;2023-02-21T08:42:23;99568.47;;;10.17;100.00
53546;BME280;39432;51.902;10.844;2023-02-21T08:44:52;99574.44;;;10.14;100.00
53546;BME280;39432;51.902;10.844;2023-02-21T08:47:23;99573.88;;;10.12;100.00
53546;BME280;39432;51.902;10.844;2023-02-21T08:49:52;99575.59;;;10.18;100.00
53546;BME280;39432;51.902;10.844;2023-02-21T08:52:22;99572.03;;;10.18;100.00
53546;BME280;39432;51.902;10.844;2023-02-21T08:54:52;99582.31;;;10.27;100.00
53546;BME280;39432;51.902;10.844;2023-02-21T08:57:24;99571.56;;;10.48;100.00
53546;BME280;39432;51.902;10.844;2023-02-21T08:59:53;99570.41;;;10.39;100.00
53546;BME280;39432;51.902;10.844;2023-02-21T09:02:24;99556.56;;;10.50;100.00
53546;BME280;39432;51.902;10.844;2023-02-21T09:04:54;99558.22;;;10.51;100.00
53546;BME280;39432;51.902;10.844;2023-02-21T09:07:24;99564.06;;;10.65;100.00
53546;BME280;39432;51.902;10.844;2023-02-21T09:09:56;99553.75;;;10.72;100.00
53546;BME280;39432;51.902;10.844;2023-02-21T09:12:31;99568.91;;;10.85;100.00
53546;BME280;39432;51.902;10.844;2023-02-21T09:15:00;99560.88;;;10.73;100.00
53546;BME280;39432;51.902;10.844;2023-02-21T09:17:30;99551.22;;;10.66;100.00
53546;BME280;39432;51.902;10.844;2023-02-21T09:20:01;99569.91;;;10.74;100.00
53546;BME280;39432;51.902;10.844;2023-02-21T09:22:33;99562.56;;;10.79;100.00
53546;BME280;39432;51.902;10.844;2023-02-21T09:25:03;99564.25;;;10.86;100.00
53546;BME280;39432;51.902;10.844;2023-02-21T09:27:38;99567.44;;;11.04;100.00
53546;BME280;39432;51.902;10.844;2023-02-21T09:30:11;99566.09;;;11.07;100.00
53546;BME280;39432;51.902;10.844;2023-02-21T09:32:41;99562.16;;;10.98;100.00
53546;BME280;39432;51.902;10.844;2023-02-21T09:35:12;99565.69;;;10.88;100.00
53546;BME280;39432;51.902;10.844;2023-02-21T09:37:43;99561.06;;;10.94;100.00
53546;BME280;39432;51.902;10.844;2023-02-21T09:40:16;99570.50;;;11.13;100.00
53546;BME280;39432;51.902;10.844;2023-02-21T09:42:54;99571.72;;;11.27;100.00
53546;BME280;39432;51.902;10.844;2023-02-21T09:45:25;99557.38;;;11.15;100.00
53546;BME280;39432;51.902;10.844;2023-02-21T09:48:00;99559.56;;;11.13;100.00
53546;BME280;39432;51.902;10.844;2023-02-21T09:50:34;99555.81;;;11.24;100.00
53546;BME280;39432;51.902;10.844;2023-02-21T09:53:10;99571.09;;;11.20;100.00
53546;BME280;39432;51.902;10.844;2023-02-21T09:55:42;99560.28;;;11.41;100.00
53546;BME280;39432;51.902;10.844;2023-02-21T09:58:17;99572.28;;;11.29;100.00
53546;BME280;39432;51.902;10.844;2023-02-21T10:00:47;99579.47;;;11.41;100.00
53546;BME280;39432;51.902;10.844;2023-02-21T10:03:30;99568.06;;;11.54;100.00
53546;BME280;39432;51.902;10.844;2023-02-21T10:06:10;99566.00;;;11.76;100.00
53546;BME280;39432;51.902;10.844;2023-02-21T10:08:49;99567.00;;;11.60;100.00
53546;BME280;39432;51.902;10.844;2023-02-21T10:11:31;99567.53;;;11.57;100.00
53546;BME280;39432;51.902;10.844;2023-02-21T10:14:12;99565.38;;;11.64;100.00
53546;BME280;39432;51.902;10.844;2023-02-21T10:16:52;99566.47;;;11.63;100.00
53546;BME280;39432;51.902;10.844;2023-02-21T10:19:26;99567.56;;;11.62;100.00
53546;BME280;39432;51.902;10.844;2023-02-21T10:21:59;99568.09;;;11.64;100.00
53546;BME280;39432;51.902;10.844;2023-02-21T10:24:32;99568.03;;;11.96;100.00
53546;BME280;39432;51.902;10.844;2023-02-21T10:27:05;99568.28;;;11.90;100.00
53546;BME280;39432;51.902;10.844;2023-02-21T10:29:44;99568.13;;;11.69;100.00
53546;BME280;39432;51.902;10.844;2023-02-21T10:32:17;99575.78;;;11.62;100.00
53546;BME280;39432;51.902;10.844;2023-02-21T10:34:47;99579.00;;;11.96;100.00
53546;BME280;39432;51.902;10.844;2023-02-21T10:37:26;99585.13;;;11.66;100.00
53546;BME280;39432;51.902;10.844;2023-02-21T10:40:02;99574.09;;;11.56;100.00
53546;BME280;39432;51.902;10.844;2023-02-21T10:42:38;99582.41;;;11.71;100.00
53546;BME280;39432;51.902;10.844;2023-02-21T10:45:15;99591.19;;;11.73;100.00
53546;BME280;39432;51.902;10.844;2023-02-21T10:47:52;99585.19;;;11.76;100.00
53546;BME280;39432;51.902;10.844;2023-02-21T10:50:48;99586.91;;;11.82;100.00
53546;BME280;39432;51.902;10.844;2023-02-21T10:53:25;99594.09;;;11.99;100.00
53546;BME280;39432;51.902;10.844;2023-02-21T10:56:20;99590.25;;;12.00;100.00
53546;BME280;39432;51.902;10.844;2023-02-21T10:58:53;99577.19;;;12.27;100.00
53546;BME280;39432;51.902;10.844;2023-02-21T11:01:40;99580.47;;;12.24;100.00
53546;BME280;39432;51.902;10.844;2023-02-21T11:04:23;99580.44;;;12.14;100.00
53546;BME280;39432;51.902;10.844;2023-02-21T11:06:55;99579.13;;;12.32;100.00
53546;BME280;39432;51.902;10.844;2023-02-21T11:09:36;99575.28;;;12.28;100.00
53546;BME280;39432;51.902;10.844;2023-02-21T11:12:21;99575.06;;;12.45;100.00
53546;BME280;39432;51.902;10.844;2023-02-21T11:15:15;99568.47;;;12.51;100.00
53546;BME280;39432;51.902;10.844;2023-02-21T11:18:02;99561.84;;;12.42;100.00
53546;BME280;39432;51.902;10.844;2023-02-21T11:20:32;99558.53;;;12.24;100.00
53546;BME280;39432;51.902;10.844;2023-02-21T11:23:01;99559.69;;;12.49;100.00
53546;BME280;39432;51.902;10.844;2023-02-21T11:25:38;99556.69;;;12.60;100.00
53546;BME280;39432;51.902;10.844;2023-02-21T11:28:18;99568.53;;;12.81;100.00
53546;BME280;39432;51.902;10.844;2023-02-21T11:30:50;99566.63;;;12.97;100.00
53546;BME280;39432;51.902;10.844;2023-02-21T11:33:35;99566.88;;;12.96;100.00
53546;BME280;39432;51.902;10.844;2023-02-21T11:36:09;99562.75;;;12.88;100.00
53546;BME280;39432;51.902;10.844;2023-02-21T11:38:41;99571.25;;;12.66;100.00
53546;BME280;39432;51.902;10.844;2023-02-21T11:41:20;99572.84;;;12.47;100.00
53546;BME280;39432;51.902;10.844;2023-02-21T11:43:51;99569.56;;;12.45;100.00
53546;BME280;39432;51.902;10.844;2023-02-21T11:46:34;99571.75;;;12.43;100.00
53546;BME280;39432;51.902;10.844;2023-02-21T11:49:16;99577.00;;;12.59;100.00
53546;BME280;39432;51.902;10.844;2023-02-21T11:51:49;99568.78;;;12.85;100.00
53546;BME280;39432;51.902;10.844;2023-02-21T11:54:25;99563.81;;;12.61;100.00
53546;BME280;39432;51.902;10.844;2023-02-21T11:57:00;99570.69;;;12.49;100.00
53546;BME280;39432;51.902;10.844;2023-02-21T12:02:40;99565.94;;;12.29;100.00
53546;BME280;39432;51.902;10.844;2023-02-21T12:05:29;99561.63;;;12.53;100.00
53546;BME280;39432;51.902;10.844;2023-02-21T12:08:15;99564.84;;;12.25;100.00
53546;BME280;39432;51.902;10.844;2023-02-21T12:10:55;99551.47;;;12.54;100.00
53546;BME280;39432;51.902;10.844;2023-02-21T12:13:37;99547.63;;;12.55;100.00
53546;BME280;39432;51.902;10.844;2023-02-21T12:16:25;99547.56;;;12.24;100.00
53546;BME280;39432;51.902;10.844;2023-02-21T12:19:11;99539.91;;;12.47;100.00
53546;BME280;39432;51.902;10.844;2023-02-21T12:22:00;99547.91;;;12.48;100.00
53546;BME280;39432;51.902;10.844;2023-02-21T12:24:55;99542.91;;;12.35;100.00
53546;BME280;39432;51.902;10.844;2023-02-21T12:27:30;99535.50;;;12.30;100.00
53546;BME280;39432;51.902;10.844;2023-02-21T12:30:16;99554.72;;;12.35;100.00
53546;BME280;39432;51.902;10.844;2023-02-21T12:32:58;99547.09;;;12.48;100.00
53546;BME280;39432;51.902;10.844;2023-02-21T12:36:03;99543.78;;;12.61;100.00
53546;BME280;39432;51.902;10.844;2023-02-21T12:38:53;99549.84;;;12.73;100.00
53546;BME280;39432;51.902;10.844;2023-02-21T12:41:36;99539.44;;;12.75;100.00
53546;BME280;39432;51.902;10.844;2023-02-21T12:44:12;99542.19;;;12.80;100.00
53546;BME280;39432;51.902;10.844;2023-02-21T12:46:46;99539.97;;;12.77;100.00
53546;BME280;39432;51.902;10.844;2023-02-21T12:49:20;99543.50;;;12.47;100.00
53546;BME280;39432;51.902;10.844;2023-02-21T12:51:56;99548.16;;;12.52;100.00
53546;BME280;39432;51.902;10.844;2023-02-21T12:54:37;99547.59;;;12.39;100.00
53546;BME280;39432;51.902;10.844;2023-02-21T12:57:11;99557.75;;;12.44;100.00
53546;BME280;39432;51.902;10.844;2023-02-21T12:59:50;99547.06;;;12.43;100.00
53546;BME280;39432;51.902;10.844;2023-02-21T13:02:33;99545.28;;;12.01;100.00
53546;BME280;39432;51.902;10.844;2023-02-21T13:05:08;99540.91;;;12.00;100.00
53546;BME280;39432;51.902;10.844;2023-02-21T13:07:43;99546.44;;;12.10;100.00
53546;BME280;39432;51.902;10.844;2023-02-21T13:10:20;99545.94;;;12.28;100.00
53546;BME280;39432;51.902;10.844;2023-02-21T13:12:55;99548.59;;;12.08;100.00
53546;BME280;39432;51.902;10.844;2023-02-21T13:15:27;99553.84;;;12.15;100.00
53546;BME280;39432;51.902;10.844;2023-02-21T13:18:00;99546.38;;;12.00;100.00
53546;BME280;39432;51.902;10.844;2023-02-21T13:20:37;99546.88;;;11.86;100.00
53546;BME280;39432;51.902;10.844;2023-02-21T13:26:51;99538.41;;;11.93;100.00
53546;BME280;39432;51.902;10.844;2023-02-21T13:29:28;99533.56;;;11.63;100.00
53546;BME280;39432;51.902;10.844;2023-02-21T13:32:00;99533.53;;;11.58;100.00
53546;BME280;39432;51.902;10.844;2023-02-21T13:34:35;99531.44;;;11.75;100.00
53546;BME280;39432;51.902;10.844;2023-02-21T13:37:14;99541.38;;;11.86;100.00
53546;BME280;39432;51.902;10.844;2023-02-21T13:39:45;99539.78;;;11.96;100.00
53546;BME280;39432;51.902;10.844;2023-02-21T13:42:25;99546.16;;;12.17;100.00
53546;BME280;39432;51.902;10.844;2023-02-21T13:45:09;99544.56;;;12.26;100.00
53546;BME280;39432;51.902;10.844;2023-02-21T13:50:47;99537.19;;;12.52;100.00
53546;BME280;39432;51.902;10.844;2023-02-21T13:53:18;99536.03;;;12.22;100.00
53546;BME280;39432;51.902;10.844;2023-02-21T13:59:34;99537.03;;;11.96;100.00
53546;BME280;39432;51.902;10.844;2023-02-21T14:02:21;99547.41;;;11.83;100.00